createdAt,value
2018-06-17T00:01:51.240Z,12.70
2018-06-17T00:04:25.089Z,12.70
2018-06-17T00:06:55.512Z,12.80
2018-06-17T00:09:25.924Z,12.80
2018-06-17T00:11:55.835Z,12.90
2018-06-17T00:14:25.872Z,12.90
2018-06-17T00:16:56.142Z,12.80
2018-06-17T00:19:25.706Z,12.80
2018-06-17T00:21:56.370Z,12.70
2018-06-17T00:24:26.795Z,12.60
2018-06-17T00:26:57.060Z,12.60
2018-06-17T00:29:27.056Z,12.60
2018-06-17T00:31:58.274Z,12.50
2018-06-17T00:34:29.538Z,12.50
2018-06-17T00:37:00.299Z,12.50
2018-06-17T00:39:30.441Z,12.40
2018-06-17T00:42:01.056Z,12.40
2018-06-17T00:44:30.603Z,12.30
2018-06-17T00:47:00.239Z,12.40
2018-06-17T00:49:29.520Z,12.30
2018-06-17T00:51:59.477Z,12.20
2018-06-17T00:54:28.749Z,12.20
2018-06-17T00:57:09.236Z,12.10
2018-06-17T00:59:38.275Z,12.10
2018-06-17T01:02:07.272Z,12.10
2018-06-17T01:04:40.353Z,12.10
2018-06-17T01:07:10.575Z,12.10
2018-06-17T01:09:40.769Z,12.20
2018-06-17T01:12:10.450Z,12.20
2018-06-17T01:14:40.879Z,12.30
2018-06-17T01:17:11.015Z,12.30
2018-06-17T01:19:40.645Z,12.40
2018-06-17T01:22:09.793Z,12.40
2018-06-17T01:24:39.257Z,12.50
2018-06-17T01:27:08.748Z,12.50
2018-06-17T01:29:37.939Z,12.60
2018-06-17T01:32:07.402Z,12.60
2018-06-17T01:34:37.802Z,12.60
2018-06-17T01:37:07.682Z,12.60
2018-06-17T01:39:37.766Z,12.60
2018-06-17T01:42:07.645Z,12.70
2018-06-17T01:44:38.066Z,12.60
2018-06-17T01:47:07.807Z,12.70
2018-06-17T01:49:37.966Z,12.70
2018-06-17T01:52:07.748Z,12.70
2018-06-17T01:54:37.043Z,12.80
2018-06-17T01:57:06.202Z,12.90
2018-06-17T01:59:35.743Z,13.00
2018-06-17T02:02:06.763Z,13.10
2018-06-17T02:04:41.933Z,13.10
2018-06-17T02:07:17.834Z,13.10
2018-06-17T02:11:54.147Z,13.10
2018-06-17T02:14:28.182Z,13.20
2018-06-17T02:16:57.533Z,13.10
2018-06-17T02:19:27.923Z,13.10
2018-06-17T02:21:59.323Z,13.10
2018-06-17T02:24:30.146Z,13.10
2018-06-17T02:26:59.219Z,13.10
2018-06-17T02:29:28.708Z,13.10
2018-06-17T02:31:58.744Z,13.20
2018-06-17T02:34:29.010Z,13.20
2018-06-17T02:36:59.613Z,13.30
2018-06-17T02:39:29.613Z,13.30
2018-06-17T02:41:59.352Z,13.40
2018-06-17T02:44:29.461Z,13.50
2018-06-17T02:47:04.587Z,13.60
2018-06-17T02:49:38.516Z,13.70
2018-06-17T02:52:14.293Z,13.80
2018-06-17T02:54:47.527Z,13.80
2018-06-17T02:57:19.110Z,13.90
2018-06-17T02:59:48.843Z,14.00
2018-06-17T03:02:18.577Z,14.10
2018-06-17T03:04:48.492Z,14.30
2018-06-17T03:07:18.897Z,14.30
2018-06-17T03:09:48.791Z,14.30
2018-06-17T03:12:19.875Z,14.30
2018-06-17T03:14:50.264Z,14.30
2018-06-17T03:17:20.376Z,14.40
2018-06-17T03:19:49.979Z,14.50
2018-06-17T03:22:20.429Z,14.70
2018-06-17T03:24:58.470Z,14.80
2018-06-17T03:27:32.581Z,15.00
2018-06-17T03:30:07.648Z,15.10
2018-06-17T03:32:43.461Z,15.20
2018-06-17T03:35:19.616Z,15.30
2018-06-17T03:37:50.277Z,15.50
2018-06-17T03:40:20.850Z,15.60
2018-06-17T03:42:51.017Z,15.60
2018-06-17T03:45:22.942Z,15.70
2018-06-17T03:47:53.163Z,15.80
2018-06-17T03:50:23.535Z,15.90
2018-06-17T03:52:53.455Z,16.00
2018-06-17T03:55:27.140Z,16.10
2018-06-17T03:58:00.603Z,16.30
2018-06-17T04:00:30.305Z,16.30
2018-06-17T04:03:00.332Z,16.50
2018-06-17T04:05:31.509Z,16.60
2018-06-17T04:08:01.386Z,16.60
2018-06-17T04:10:31.723Z,16.80
2018-06-17T04:13:02.147Z,17.00
2018-06-17T04:15:32.232Z,17.20
2018-06-17T04:18:02.389Z,17.40
2018-06-17T04:20:33.625Z,17.50
2018-06-17T04:23:03.877Z,17.70
2018-06-17T04:25:33.305Z,17.70
2018-06-17T04:28:03.134Z,17.80
2018-06-17T04:30:33.471Z,17.80
2018-06-17T04:33:03.113Z,17.80
2018-06-17T04:35:33.395Z,17.80
2018-06-17T04:38:03.652Z,17.90
2018-06-17T04:40:34.028Z,17.90
2018-06-17T04:43:04.301Z,18.00
2018-06-17T04:45:35.583Z,17.90
2018-06-17T04:48:06.101Z,17.90
2018-06-17T04:50:36.165Z,17.80
2018-06-17T04:53:05.424Z,17.70
2018-06-17T04:55:39.420Z,17.70
2018-06-17T04:58:09.355Z,17.60
2018-06-17T05:00:39.453Z,17.70
2018-06-17T05:03:09.636Z,17.80
2018-06-17T05:05:39.646Z,18.00
2018-06-17T05:08:10.153Z,18.40
2018-06-17T05:10:40.390Z,18.60
2018-06-17T05:13:10.596Z,18.50
2018-06-17T05:15:40.611Z,18.50
2018-06-17T05:18:11.794Z,18.70
2018-06-17T05:20:42.166Z,19.10
2018-06-17T05:23:12.015Z,19.60
2018-06-17T05:25:44.962Z,19.70
2018-06-17T05:28:15.857Z,19.70
2018-06-17T05:30:46.781Z,19.50
2018-06-17T05:33:16.157Z,19.20
2018-06-17T05:35:45.423Z,19.10
2018-06-17T05:38:14.912Z,19.00
2018-06-17T05:40:44.509Z,19.00
2018-06-17T05:43:14.907Z,19.00
2018-06-17T05:45:46.104Z,19.00
2018-06-17T05:48:17.036Z,19.00
2018-06-17T05:50:46.550Z,19.00
2018-06-17T05:53:16.442Z,19.10
2018-06-17T05:55:45.860Z,19.20
2018-06-17T05:58:15.044Z,19.20
2018-06-17T06:00:44.380Z,19.20
2018-06-17T06:03:14.093Z,19.20
2018-06-17T06:05:44.085Z,19.20
2018-06-17T06:08:15.002Z,19.30
2018-06-17T06:10:48.158Z,19.30
2018-06-17T06:13:19.008Z,19.30
2018-06-17T06:15:49.038Z,19.40
2018-06-17T06:18:19.784Z,19.40
2018-06-17T06:20:50.168Z,19.50
2018-06-17T06:23:19.664Z,19.50
2018-06-17T06:25:49.601Z,19.60
2018-06-17T06:28:19.050Z,19.70
2018-06-17T06:30:48.282Z,19.70
2018-06-17T06:33:19.418Z,19.80
2018-06-17T06:35:48.601Z,20.00
2018-06-17T06:38:17.704Z,20.10
2018-06-17T06:40:46.986Z,20.10
2018-06-17T06:43:16.734Z,20.20
2018-06-17T06:45:48.273Z,20.20
2018-06-17T06:48:20.093Z,20.40
2018-06-17T06:50:50.943Z,20.50
2018-06-17T06:55:59.994Z,20.70
2018-06-17T06:58:30.092Z,20.80
2018-06-17T07:01:00.031Z,20.70
2018-06-17T07:05:47.084Z,20.80
2018-06-17T07:08:26.993Z,20.70
2018-06-17T07:10:56.901Z,20.80
2018-06-17T07:13:27.551Z,20.90
2018-06-17T07:16:09.096Z,20.90
2018-06-17T07:18:40.421Z,21.00
2018-06-17T07:21:10.731Z,21.00
2018-06-17T07:23:41.879Z,21.00
2018-06-17T07:26:36.075Z,21.00
2018-06-17T07:29:17.410Z,21.00
2018-06-17T07:31:49.268Z,21.20
2018-06-17T07:34:19.893Z,21.40
2018-06-17T07:36:57.349Z,21.50
2018-06-17T07:41:35.811Z,21.60
2018-06-17T07:44:06.886Z,21.90
2018-06-17T07:46:40.148Z,22.30
2018-06-17T07:49:30.661Z,22.40
2018-06-17T07:54:11.747Z,22.40
2018-06-17T07:56:50.852Z,22.40
2018-06-17T07:59:28.305Z,22.40
2018-06-17T08:02:10.598Z,22.40
2018-06-17T08:04:55.360Z,22.40
2018-06-17T08:07:29.039Z,22.40
2018-06-17T08:10:02.230Z,22.50
2018-06-17T08:12:35.735Z,22.50
2018-06-17T08:15:10.521Z,22.50
2018-06-17T08:17:42.147Z,22.40
2018-06-17T08:20:16.042Z,22.30
2018-06-17T08:22:50.161Z,22.40
2018-06-17T08:25:24.778Z,22.40
2018-06-17T08:27:57.601Z,22.50
2018-06-17T08:30:29.577Z,22.50
2018-06-17T08:33:00.382Z,22.50
2018-06-17T08:35:30.283Z,22.50
2018-06-17T08:38:02.112Z,22.50
2018-06-17T08:40:32.621Z,22.50
2018-06-17T08:43:04.123Z,22.50
2018-06-17T08:45:34.209Z,22.50
2018-06-17T08:48:05.194Z,22.50
2018-06-17T08:50:35.121Z,22.50
2018-06-17T08:53:04.847Z,22.60
2018-06-17T08:55:34.731Z,22.70
2018-06-17T08:59:35.007Z,22.80
2018-06-17T09:02:05.829Z,22.80
2018-06-17T09:04:35.842Z,22.90
2018-06-17T09:07:06.442Z,23.00
2018-06-17T09:09:37.191Z,23.00
2018-06-17T09:12:06.631Z,23.10
2018-06-17T09:14:36.801Z,23.10
2018-06-17T09:17:06.438Z,23.10
2018-06-17T09:19:37.116Z,23.10
2018-06-17T09:22:07.374Z,23.20
2018-06-17T09:24:37.340Z,23.20
2018-06-17T09:27:06.930Z,23.20
2018-06-17T09:29:37.001Z,23.20
2018-06-17T09:32:08.343Z,23.10
2018-06-17T09:34:37.837Z,23.10
2018-06-17T09:37:09.234Z,23.00
2018-06-17T09:39:43.119Z,23.00
2018-06-17T09:44:45.157Z,23.20
2018-06-17T09:47:15.260Z,23.20
2018-06-17T09:49:45.285Z,23.20
2018-06-17T09:53:12.267Z,23.20
2018-06-17T09:55:42.362Z,23.10
2018-06-17T09:58:12.287Z,23.00
2018-06-17T10:00:42.483Z,23.00
2018-06-17T10:03:12.427Z,23.00
2018-06-17T10:05:46.873Z,23.10
2018-06-17T10:08:16.623Z,23.10
2018-06-17T10:10:52.889Z,23.20
2018-06-17T10:13:25.983Z,23.30
2018-06-17T10:15:57.141Z,23.40
2018-06-17T10:19:29.882Z,23.50
2018-06-17T10:21:59.324Z,23.50
2018-06-17T10:24:29.462Z,23.50
2018-06-17T10:31:18.051Z,23.70
2018-06-17T10:33:48.014Z,24.00
2018-06-17T10:37:46.667Z,24.30
2018-06-17T10:40:16.533Z,24.70
2018-06-17T10:42:47.536Z,25.20
2018-06-17T10:49:27.640Z,25.40
2018-06-17T10:52:54.768Z,25.10
2018-06-17T10:55:26.549Z,25.00
2018-06-17T11:02:38.711Z,24.60
2018-06-17T11:05:09.239Z,24.60
2018-06-17T11:07:40.681Z,24.60
2018-06-17T11:10:45.599Z,24.70
2018-06-17T11:13:15.579Z,24.70
2018-06-17T11:15:47.076Z,24.60
2018-06-17T11:18:17.186Z,24.50
2018-06-17T11:20:49.867Z,24.40
2018-06-17T11:23:19.694Z,24.50
2018-06-17T11:25:49.755Z,24.50
2018-06-17T11:28:18.876Z,24.60
2018-06-17T11:30:48.827Z,24.60
2018-06-17T11:33:20.645Z,24.60
2018-06-17T11:35:51.724Z,24.50
2018-06-17T11:38:22.587Z,24.30
2018-06-17T11:41:25.840Z,24.20
2018-06-17T11:43:56.562Z,24.10
2018-06-17T11:46:27.716Z,24.00
2018-06-17T11:48:59.298Z,24.10
2018-06-17T11:51:29.626Z,24.30
2018-06-17T11:53:58.979Z,24.30
2018-06-17T11:56:27.939Z,24.30
2018-06-17T11:58:57.864Z,24.20
2018-06-17T12:01:28.085Z,24.10
2018-06-17T12:03:59.403Z,24.00
2018-06-17T12:06:29.532Z,23.80
2018-06-17T12:08:58.476Z,23.70
2018-06-17T12:11:28.770Z,23.60
2018-06-17T12:13:58.719Z,23.50
2018-06-17T12:16:28.387Z,23.50
2018-06-17T12:18:58.504Z,23.50
2018-06-17T12:21:27.982Z,23.50
2018-06-17T12:23:57.432Z,23.30
2018-06-17T12:26:28.587Z,23.20
2018-06-17T12:28:58.657Z,23.20
2018-06-17T12:31:29.310Z,23.20
2018-06-17T12:33:59.892Z,23.10
2018-06-17T12:36:29.116Z,23.10
2018-06-17T12:38:58.858Z,23.10
2018-06-17T12:41:30.034Z,23.10
2018-06-17T12:43:59.405Z,23.10
2018-06-17T12:46:28.948Z,23.20
2018-06-17T12:48:59.390Z,23.20
2018-06-17T12:51:30.488Z,23.20
2018-06-17T12:54:00.807Z,23.20
2018-06-17T12:56:30.937Z,23.10
2018-06-17T12:59:00.595Z,23.00
2018-06-17T13:01:30.519Z,22.90
2018-06-17T13:04:01.610Z,22.90
2018-06-17T13:06:31.670Z,22.80
2018-06-17T13:09:06.325Z,22.80
2018-06-17T13:11:35.503Z,22.80
2018-06-17T13:14:05.331Z,22.80
2018-06-17T13:16:35.401Z,22.80
2018-06-17T13:19:05.770Z,22.80
2018-06-17T13:21:36.290Z,22.90
2018-06-17T13:24:06.452Z,22.90
2018-06-17T13:26:36.756Z,22.80
2018-06-17T13:29:07.034Z,22.70
2018-06-17T13:31:37.096Z,22.60
2018-06-17T13:34:07.338Z,22.60
2018-06-17T13:36:37.366Z,22.50
2018-06-17T13:39:09.923Z,22.30
2018-06-17T13:41:40.030Z,22.30
2018-06-17T13:44:09.766Z,22.20
2018-06-17T13:46:39.603Z,22.00
2018-06-17T13:49:09.722Z,21.90
2018-06-17T13:51:40.000Z,22.00
2018-06-17T13:54:09.907Z,22.00
2018-06-17T13:56:39.911Z,22.00
2018-06-17T13:59:10.116Z,21.90
2018-06-17T14:01:40.282Z,21.80
2018-06-17T14:04:10.261Z,21.80
2018-06-17T14:06:40.367Z,21.60
2018-06-17T14:09:11.103Z,21.60
2018-06-17T14:11:44.314Z,21.50
2018-06-17T14:14:14.336Z,21.40
2018-06-17T14:16:45.425Z,21.30
2018-06-17T14:19:15.712Z,21.20
2018-06-17T14:21:49.713Z,21.10
2018-06-17T14:24:19.632Z,21.10
2018-06-17T14:26:49.761Z,21.00
2018-06-17T14:29:20.002Z,21.00
2018-06-17T14:31:50.609Z,21.00
2018-06-17T14:34:20.254Z,21.00
2018-06-17T14:36:51.666Z,20.90
2018-06-17T14:42:29.507Z,20.70
2018-06-17T14:45:04.239Z,20.50
2018-06-17T14:47:39.263Z,20.30
2018-06-17T14:50:14.035Z,20.10
2018-06-17T14:52:48.353Z,20.00
2018-06-17T14:55:17.870Z,19.90
2018-06-17T14:57:48.262Z,19.80
2018-06-17T15:03:37.171Z,19.50
2018-06-17T15:09:10.116Z,19.20
2018-06-17T15:11:40.109Z,19.10
2018-06-17T15:14:10.151Z,19.00
2018-06-17T15:16:40.042Z,18.90
2018-06-17T15:19:10.336Z,18.60
2018-06-17T15:21:39.864Z,18.40
2018-06-17T15:24:10.648Z,18.20
2018-06-17T15:26:42.123Z,18.10
2018-06-17T15:29:12.143Z,17.90
2018-06-17T15:31:46.711Z,17.90
2018-06-17T15:34:22.103Z,17.90
2018-06-17T15:36:58.627Z,17.90
2018-06-17T15:39:33.369Z,17.80
2018-06-17T15:42:02.639Z,17.80
2018-06-17T15:44:32.637Z,17.70
2018-06-17T15:47:04.470Z,17.60
2018-06-17T15:49:35.508Z,17.40
2018-06-17T15:52:05.036Z,17.30
2018-06-17T15:54:34.679Z,17.20
2018-06-17T15:57:04.328Z,17.20
2018-06-17T15:59:36.379Z,17.20
2018-06-17T16:02:06.493Z,17.00
2018-06-17T16:04:36.865Z,16.90
2018-06-17T16:07:07.149Z,16.80
2018-06-17T16:09:36.834Z,16.70
2018-06-17T16:12:11.531Z,16.60
2018-06-17T16:14:46.775Z,16.60
2018-06-17T16:17:21.789Z,16.60
2018-06-17T16:19:56.854Z,16.60
2018-06-17T16:22:27.035Z,16.60
2018-06-17T16:24:56.889Z,16.60
2018-06-17T16:27:28.684Z,16.60
2018-06-17T16:30:02.233Z,16.60
2018-06-17T16:32:31.225Z,16.90
2018-06-17T16:35:00.617Z,17.20
2018-06-17T16:37:29.720Z,17.60
2018-06-17T16:39:59.827Z,17.90
2018-06-17T16:42:29.760Z,18.50
2018-06-17T16:44:59.589Z,19.00
2018-06-17T16:47:29.651Z,19.00
2018-06-17T16:50:01.328Z,18.90
2018-06-17T16:52:39.742Z,18.80
2018-06-17T16:55:17.294Z,18.80
2018-06-17T16:59:59.587Z,19.10
2018-06-17T17:02:29.527Z,19.00
2018-06-17T17:04:59.624Z,18.50
2018-06-17T17:07:28.792Z,18.10
2018-06-17T17:09:59.843Z,18.00
2018-06-17T17:12:29.870Z,17.80
2018-06-17T17:15:00.056Z,17.60
2018-06-17T17:17:33.757Z,17.50
2018-06-17T17:20:03.946Z,17.40
2018-06-17T17:22:33.802Z,17.30
2018-06-17T17:25:02.831Z,17.30
2018-06-17T17:30:51.582Z,17.20
2018-06-17T17:34:01.612Z,17.30
2018-06-17T17:36:36.496Z,17.20
2018-06-17T17:39:13.402Z,17.20
2018-06-17T17:41:43.123Z,17.20
2018-06-17T17:44:12.894Z,17.20
2018-06-17T17:46:48.179Z,17.20
2018-06-17T17:52:22.909Z,17.20
2018-06-17T17:54:54.417Z,17.20
2018-06-17T17:57:24.119Z,17.20
2018-06-17T17:59:53.893Z,17.20
2018-06-17T18:02:23.820Z,17.20
2018-06-17T18:04:53.734Z,17.20
2018-06-17T18:08:53.675Z,17.10
2018-06-17T18:11:24.631Z,17.20
2018-06-17T18:13:54.744Z,17.10
2018-06-17T18:16:24.213Z,17.10
2018-06-17T18:18:54.223Z,17.10
2018-06-17T18:21:25.164Z,17.00
2018-06-17T18:23:54.871Z,17.00
2018-06-17T18:26:30.472Z,16.90
2018-06-17T18:29:05.236Z,16.90
2018-06-17T18:31:40.585Z,16.90
2018-06-17T18:34:48.028Z,16.70
2018-06-17T18:37:17.193Z,16.60
2018-06-17T18:39:46.051Z,16.50
2018-06-17T18:42:14.965Z,16.40
2018-06-17T18:44:44.057Z,16.30
2018-06-17T18:47:15.492Z,16.30
2018-06-17T18:49:45.349Z,16.30
2018-06-17T18:52:17.852Z,16.20
2018-06-17T18:54:49.055Z,16.20
2018-06-17T18:57:18.789Z,16.10
2018-06-17T18:59:50.099Z,16.10
2018-06-17T19:02:22.288Z,16.20
2018-06-17T19:04:55.836Z,16.20
2018-06-17T19:07:27.000Z,16.30
2018-06-17T19:10:33.014Z,16.20
2018-06-17T19:13:10.852Z,16.20
2018-06-17T19:15:46.791Z,16.20
2018-06-17T19:18:17.800Z,16.10
2018-06-17T19:20:48.133Z,16.10
2018-06-17T19:23:19.312Z,16.00
2018-06-17T19:25:50.432Z,16.00
2018-06-17T19:28:22.179Z,16.00
2018-06-17T19:30:53.419Z,16.00
2018-06-17T19:33:24.234Z,15.90
2018-06-17T19:35:56.980Z,15.90
2018-06-17T19:38:27.574Z,15.90
2018-06-17T19:40:59.773Z,15.90
2018-06-17T19:43:30.101Z,15.90
2018-06-17T19:46:01.304Z,15.80
2018-06-17T19:48:34.025Z,15.80
2018-06-17T19:51:12.080Z,15.80
2018-06-17T19:53:49.422Z,15.70
2018-06-17T19:56:26.083Z,15.60
2018-06-17T19:59:02.109Z,15.60
2018-06-17T20:01:34.885Z,15.60
2018-06-17T20:04:05.711Z,15.60
2018-06-17T20:06:35.277Z,15.60
2018-06-17T20:09:06.763Z,15.60
2018-06-17T20:11:40.412Z,15.50
2018-06-17T20:14:12.127Z,15.50
2018-06-17T20:16:46.622Z,15.40
2018-06-17T20:19:15.886Z,15.30
2018-06-17T20:21:46.058Z,15.20
2018-06-17T20:24:15.874Z,15.20
2018-06-17T20:26:45.035Z,15.10
2018-06-17T20:29:15.345Z,15.10
2018-06-17T20:31:50.494Z,15.00
2018-06-17T20:34:25.983Z,15.00
2018-06-17T20:37:00.784Z,14.90
2018-06-17T20:39:36.959Z,14.90
2018-06-17T20:42:12.126Z,14.90
2018-06-17T20:47:49.675Z,15.00
2018-06-17T20:50:22.326Z,14.90
2018-06-17T20:52:51.547Z,14.90
2018-06-17T20:55:20.877Z,14.80
2018-06-17T20:57:51.060Z,14.80
2018-06-17T21:00:21.226Z,14.80
2018-06-17T21:02:52.456Z,14.80
2018-06-17T21:05:26.002Z,14.80
2018-06-17T21:07:57.774Z,14.80
2018-06-17T21:10:26.997Z,14.80
2018-06-17T21:12:57.229Z,14.80
2018-06-17T21:15:28.966Z,14.80
2018-06-17T21:18:04.451Z,14.80
2018-06-17T21:20:40.170Z,14.80
2018-06-17T21:23:15.796Z,14.80
2018-06-17T21:26:27.248Z,14.80
2018-06-17T21:28:58.467Z,14.80
2018-06-17T21:31:28.653Z,14.80
2018-06-17T21:33:59.671Z,14.90
2018-06-17T21:36:30.520Z,14.80
2018-06-17T21:39:02.147Z,14.80
2018-06-17T21:41:33.283Z,14.80
2018-06-17T21:44:05.155Z,14.80
2018-06-17T21:46:56.374Z,14.90
2018-06-17T21:49:27.515Z,14.90
2018-06-17T21:51:58.242Z,15.00
2018-06-17T21:54:28.629Z,15.00
2018-06-17T21:56:58.137Z,15.00
2018-06-17T21:59:28.846Z,15.00
2018-06-17T22:01:58.391Z,15.00
2018-06-17T22:04:33.340Z,15.00
2018-06-17T22:07:03.817Z,15.00
2018-06-17T22:09:37.925Z,14.90
2018-06-17T22:12:12.536Z,14.80
2018-06-17T22:14:49.149Z,14.80
2018-06-17T22:17:25.180Z,14.80
2018-06-17T22:19:54.463Z,14.80
2018-06-17T22:22:24.855Z,14.70
2018-06-17T22:24:53.751Z,14.70
2018-06-17T22:27:23.489Z,14.60
2018-06-17T22:29:54.422Z,14.60
2018-06-17T22:32:24.231Z,14.60
2018-06-17T22:34:54.884Z,14.60
2018-06-17T22:37:25.092Z,14.50
2018-06-17T22:39:55.502Z,14.50
2018-06-17T22:42:24.955Z,14.40
2018-06-17T22:44:55.018Z,14.40
2018-06-17T22:48:00.572Z,14.40
2018-06-17T22:50:31.469Z,14.40
2018-06-17T22:53:11.783Z,14.40
2018-06-17T22:55:41.395Z,14.30
2018-06-17T22:58:17.798Z,14.30
2018-06-17T23:00:56.244Z,14.30
2018-06-17T23:03:31.618Z,14.30
2018-06-17T23:06:07.347Z,14.20
2018-06-17T23:08:49.752Z,14.20
2018-06-17T23:11:19.743Z,14.10
2018-06-17T23:13:50.006Z,14.00
2018-06-17T23:16:19.802Z,13.90
2018-06-17T23:18:51.191Z,13.80
2018-06-17T23:24:32.921Z,13.70
2018-06-17T23:27:02.431Z,13.60
2018-06-17T23:29:31.673Z,13.50
2018-06-17T23:32:01.890Z,13.60
2018-06-17T23:34:31.785Z,13.50
2018-06-17T23:37:01.336Z,13.50
2018-06-17T23:39:30.378Z,13.40
2018-06-17T23:42:00.542Z,13.40
2018-06-17T23:44:29.694Z,13.30
2018-06-17T23:47:03.615Z,13.20
2018-06-17T23:49:38.593Z,13.10
2018-06-17T23:52:13.764Z,13.00
2018-06-17T23:54:49.622Z,12.90
2018-06-17T23:57:20.628Z,12.80
2018-06-17T23:59:50.701Z,12.80
